»·PEaware :: N9401L KSAN-KPSP

N9401L :: KSAN-KPSP

FLIGHT INFORMATION

Flight Status: Arrived
Operator: Privately registered:
United States
More flights under this callsign
Pilot: Juan D. (11620)
Aircraft: PIPER PA-28R-201 ARROW
(P28R)
More flights by this aircraft type
Origin: KSAN San Diego Intl-Lindbergh
United States
Destination: KPSP Palm Springs Intl
United States
More flights between these airports :: More routes between these airports
Route: +JLI V208 TRM
File this flight plan on PilotEdge
Remarks:
Altitude:
(Current/Filed)
9,000ft
Speed:
(Current/Filed)
140kts
Departed: 29-Nov-19 02:36 PM
Arrived: 29-Nov-19 03:28 PM
Distance/Time
Traveled:
74nm/0:51
Distance/Time
To Go:
Arrived

Flight Plot

Page will automatically refresh every two minutes.


Map Options




Map Legend


Flown Route
Filed Route
Departure Airport
Arrival Airport
Navaid (VOR, NDB)
Fix

Horizontal Profiles

Position Reports

Time Latitude Longitude Heading Altitude Ground
Speed
29-Nov-19 14:11 32.732420 -117.176641 194 20ft 0kts
29-Nov-19 14:12 32.732420 -117.176641 194 20ft 0kts
29-Nov-19 14:13 32.732420 -117.176641 194 20ft 0kts
29-Nov-19 14:14 32.732420 -117.176641 194 20ft 0kts
29-Nov-19 14:15 32.732420 -117.176641 194 20ft 0kts
29-Nov-19 14:16 32.732420 -117.176641 194 20ft 0kts
29-Nov-19 14:17 32.732420 -117.176641 194 20ft 0kts
29-Nov-19 14:18 32.732420 -117.176641 194 20ft 0kts
29-Nov-19 14:19 32.732420 -117.176641 194 20ft 0kts
29-Nov-19 14:20 32.732420 -117.176641 194 20ft 0kts
29-Nov-19 14:21 32.732420 -117.176641 194 20ft 0kts
29-Nov-19 14:22 32.732420 -117.176641 194 20ft 0kts
29-Nov-19 14:23 32.732420 -117.176641 194 20ft 0kts
29-Nov-19 14:24 32.732420 -117.176641 194 20ft 0kts
29-Nov-19 14:25 32.732420 -117.176641 194 20ft 0kts
29-Nov-19 14:26 32.732420 -117.176641 194 20ft 0kts
29-Nov-19 14:27 32.732420 -117.176641 194 20ft 0kts
29-Nov-19 14:28 32.732420 -117.176641 194 20ft 0kts
29-Nov-19 14:29 32.732420 -117.176641 194 20ft 0kts
29-Nov-19 14:30 32.732420 -117.176641 194 20ft 0kts
29-Nov-19 14:31 32.732420 -117.176641 194 20ft 0kts
29-Nov-19 14:33 32.732420 -117.176641 194 20ft 0kts
29-Nov-19 14:34 32.730946 -117.175500 136 20ft 0kts
29-Nov-19 14:35 32.730946 -117.175500 136 20ft 0kts
29-Nov-19 14:36 32.731783 -117.182240 286 147ft 75kts
29-Nov-19 14:37 32.741075 -117.198040 319 1042ft 77kts
29-Nov-19 14:38 32.755147 -117.208995 319 1875ft 75kts
29-Nov-19 14:39 32.771705 -117.221179 320 2092ft 84kts
29-Nov-19 14:40 32.788317 -117.232488 320 2495ft 82kts
29-Nov-19 14:41 32.805566 -117.243356 320 3014ft 83kts
29-Nov-19 14:42 32.823787 -117.254468 320 3526ft 83kts
29-Nov-19 14:43 32.842921 -117.265802 321 4051ft 84kts
29-Nov-19 14:44 32.862453 -117.277104 321 4645ft 81kts
29-Nov-19 14:45 32.884248 -117.289412 321 5287ft 80kts
29-Nov-19 14:46 32.903542 -117.299345 320 6261ft 70kts
29-Nov-19 14:47 32.923097 -117.292905 67 7103ft 118kts
29-Nov-19 14:48 32.924565 -117.263485 138 7863ft 111kts
29-Nov-19 14:49 32.923824 -117.236211 60 8559ft 114kts
29-Nov-19 14:50 32.933190 -117.207363 61 8958ft 139kts
29-Nov-19 14:51 32.945029 -117.170975 63 8947ft 158kts
29-Nov-19 14:52 32.959141 -117.128250 63 8947ft 163kts
29-Nov-19 14:52 32.970623 -117.093700 63 8944ft 168kts
29-Nov-19 14:54 32.990888 -117.032780 63 8937ft 170kts
29-Nov-19 14:55 33.012977 -116.966317 64 8930ft 170kts
29-Nov-19 14:55 33.033382 -116.904755 64 8924ft 170kts
29-Nov-19 14:56 33.052793 -116.846129 64 8922ft 170kts
29-Nov-19 14:58 33.076168 -116.775340 64 8923ft 170kts
29-Nov-19 14:58 33.092871 -116.724675 64 8923ft 169kts
29-Nov-19 14:59 33.115838 -116.654882 64 8922ft 166kts
29-Nov-19 15:00 33.137108 -116.591192 51 8917ft 163kts
29-Nov-19 15:01 33.179622 -116.549466 25 8919ft 155kts
29-Nov-19 15:02 33.224177 -116.510455 25 8920ft 153kts
29-Nov-19 15:03 33.263963 -116.475689 25 8911ft 151kts
29-Nov-19 15:04 33.301236 -116.443134 25 8903ft 150kts
29-Nov-19 15:05 33.337352 -116.411564 25 8898ft 150kts
29-Nov-19 15:06 33.373476 -116.381171 23 8897ft 150kts
29-Nov-19 15:07 33.409329 -116.350246 23 8897ft 150kts
29-Nov-19 15:08 33.443684 -116.321848 25 8891ft 151kts
29-Nov-19 15:09 33.479664 -116.290343 25 8891ft 152kts
29-Nov-19 15:10 33.514972 -116.259359 25 8891ft 152kts
29-Nov-19 15:11 33.548813 -116.229636 25 8891ft 152kts
29-Nov-19 15:12 33.584061 -116.198614 25 8411ft 142kts
29-Nov-19 15:13 33.624943 -116.169806 332 7370ft 127kts
29-Nov-19 15:14 33.637249 -116.200028 286 6846ft 105kts
29-Nov-19 15:15 33.644500 -116.230689 285 6295ft 108kts
29-Nov-19 15:16 33.651787 -116.262162 286 5654ft 107kts
29-Nov-19 15:17 33.658963 -116.293260 286 4989ft 108kts
29-Nov-19 15:18 33.666454 -116.325773 287 4322ft 109kts
29-Nov-19 15:19 33.674081 -116.358511 293 3660ft 110kts
29-Nov-19 15:20 33.695288 -116.382891 320 3519ft 124kts
29-Nov-19 15:21 33.720483 -116.406388 322 2871ft 133kts
29-Nov-19 15:22 33.746340 -116.430612 324 2259ft 134kts
29-Nov-19 15:23 33.771825 -116.454285 323 1758ft 134kts
29-Nov-19 15:24 33.794723 -116.475612 325 1243ft 85kts
29-Nov-19 15:25 33.809129 -116.489816 329 803ft 71kts
29-Nov-19 15:26 33.821660 -116.500599 328 508ft 55kts
29-Nov-19 15:27 33.824337 -116.504251 175 480ft 0kts
29-Nov-19 15:28 33.824337 -116.504251 175 480ft 0kts
29-Nov-19 15:29 33.825945 -116.507032 256 480ft 23kts
29-Nov-19 15:30 33.826819 -116.509356 275 480ft 0kts

Navigation Log

Ident Type
Flight plan parsing failed, navigation log unavailable